Time;durP1;ratioP1;P1;durP2;ratioP2;P2;SDS_P1;SDS_P2;PMS_P1;PMS_P2;Temp;Humidity;BMP_temperature;BMP_pressure;BME280_temperature;BME280_humidity;BME280_pressure;Samples;Min_cycle;Max_cycle;Signal;HPM_P1;HPM_P2
2022/01/17 00:00:47;;;;;;;;;56.75;45.00;;;;;6.58;79.07;103124.81;5080019;28;46099;-52
2022/01/17 00:03:12;;;;;;;;;59.75;48.00;;;;;6.58;79.12;103114.22;5079671;28;45424;-52
2022/01/17 00:05:38;;;;;;;;;67.50;49.25;;;;;6.57;79.30;103123.91;5079958;27;45487;-52
2022/01/17 00:08:04;;;;;;;;;71.00;51.25;;;;;6.55;79.27;103124.91;5078870;28;45456;-50
2022/01/17 00:10:29;;;;;;;;;80.00;54.75;;;;;6.59;78.95;103131.81;5078714;27;45965;-51
2022/01/17 00:12:57;;;;;;;;;51.50;44.25;;;;;6.52;79.09;103125.91;5078767;28;45332;-56
2022/01/17 00:15:30;;;;;;;;;67.75;47.25;;;;;6.53;78.98;103125.00;5079111;27;45219;-57
2022/01/17 00:20:47;;;;;;;;;60.50;44.00;;;;;6.58;79.37;103135.38;5078853;28;45399;-52
2022/01/17 00:23:14;;;;;;;;;58.75;40.50;;;;;6.57;78.45;103134.50;5078957;27;45597;-48
2022/01/17 00:25:40;;;;;;;;;59.50;42.00;;;;;6.53;79.21;103132.94;5078915;28;45284;-52
2022/01/17 00:28:05;;;;;;;;;52.50;40.50;;;;;6.52;79.50;103132.97;5078875;27;45437;-54
2022/01/17 00:30:30;;;;;;;;;52.50;41.75;;;;;6.47;79.72;103120.78;5078499;28;46919;-50
2022/01/17 00:32:56;;;;;;;;;59.25;44.00;;;;;6.43;79.41;103111.25;5078815;28;45427;-51
2022/01/17 00:35:22;;;;;;;;;58.75;42.75;;;;;6.54;79.75;103126.72;5078818;28;45337;-54
2022/01/17 00:37:48;;;;;;;;;51.75;42.75;;;;;6.56;79.68;103122.19;5079124;27;45325;-51
2022/01/17 00:40:14;;;;;;;;;45.25;39.50;;;;;6.53;80.15;103124.09;5078530;27;46048;-59
2022/01/17 00:42:40;;;;;;;;;54.75;43.75;;;;;6.47;80.00;103118.16;5078558;28;45452;-53
2022/01/17 00:45:07;;;;;;;;;46.75;26.00;;;;;6.53;80.14;103125.00;5078686;27;45274;-49
2022/01/17 00:47:34;;;;;;;;;57.00;45.00;;;;;6.51;79.79;103124.19;5078671;28;45435;-54
2022/01/17 00:49:59;;;;;;;;;46.25;37.25;;;;;6.48;79.41;103124.28;5078253;28;45367;-52
2022/01/17 00:52:25;;;;;;;;;59.25;42.75;;;;;6.48;79.90;103132.22;5078378;28;45401;-51
2022/01/17 00:54:50;;;;;;;;;50.00;41.25;;;;;6.46;80.13;103134.09;5078428;27;45383;-56
2022/01/17 00:57:15;;;;;;;;;53.25;42.00;;;;;6.45;79.60;103133.22;5078738;27;45327;-53
2022/01/17 00:59:41;;;;;;;;;61.75;46.00;;;;;6.43;79.62;103127.13;5078065;28;46039;-53
2022/01/17 01:02:06;;;;;;;;;54.75;41.50;;;;;6.41;79.79;103122.84;5078337;27;45298;-49
2022/01/17 01:04:31;;;;;;;;;58.50;39.75;;;;;6.40;79.92;103111.38;5077220;28;45378;-54
2022/01/17 01:06:57;;;;;;;;;58.75;44.75;;;;;6.40;80.55;103118.44;5078509;27;45408;-53
2022/01/17 01:09:24;;;;;;;;;62.25;45.50;;;;;6.36;80.44;103124.78;5078127;28;46130;-48
2022/01/17 01:11:50;;;;;;;;;57.00;45.25;;;;;6.33;80.75;103119.63;5110455;27;45412;-55
2022/01/17 01:14:15;;;;;;;;;58.50;41.75;;;;;6.32;80.99;103128.47;5077918;28;45202;-56
2022/01/17 01:16:42;;;;;;;;;54.50;41.75;;;;;6.34;81.11;103122.22;5078455;28;45358;-54
2022/01/17 01:19:25;;;;;;;;;61.50;45.00;;;;;6.37;80.90;103121.25;5077889;27;45337;-56
2022/01/17 01:30:18;;;;;;;;;51.00;42.25;;;;;6.41;80.37;103110.47;4995049;28;46666;-52
2022/01/17 01:32:49;;;;;;;;;61.00;44.25;;;;;6.44;80.30;103127.97;4995492;28;45425;-58
2022/01/17 01:35:18;;;;;;;;;54.25;41.00;;;;;6.33;80.19;103101.13;4995463;28;45380;-53
2022/01/17 01:37:45;;;;;;;;;45.50;39.00;;;;;6.43;80.59;103115.69;4995610;28;45516;-53
2022/01/17 01:40:11;;;;;;;;;55.00;46.00;;;;;6.39;80.60;103114.09;4995025;28;45412;-51
2022/01/17 01:42:37;;;;;;;;;57.25;43.25;;;;;6.41;80.73;103122.84;4995149;28;45399;-50
2022/01/17 01:45:05;;;;;;;;;23.50;16.75;;;;;6.41;81.05;103125.50;4995353;28;45484;-52
2022/01/17 01:47:31;;;;;;;;;45.50;36.00;;;;;6.43;80.93;103131.56;4995448;28;45329;-48
2022/01/17 01:49:57;;;;;;;;;52.75;39.25;;;;;6.43;80.91;103119.19;4994971;28;45478;-50
2022/01/17 01:52:22;;;;;;;;;61.25;44.75;;;;;6.46;80.65;103134.09;4995244;28;45444;-50
2022/01/17 01:54:47;;;;;;;;;61.75;43.50;;;;;6.44;81.02;103135.91;4995332;28;45645;-49
2022/01/17 01:57:13;;;;;;;;;66.75;51.00;;;;;6.50;80.45;103133.03;4995444;28;45361;-52
2022/01/17 01:59:39;;;;;;;;;59.00;48.75;;;;;6.53;80.31;103130.28;4994945;28;46480;-53
2022/01/17 02:02:06;;;;;;;;;76.75;54.50;;;;;6.55;80.19;103136.34;4995016;28;45517;-52
2022/01/17 02:04:32;;;;;;;;;63.25;50.00;;;;;6.52;80.92;103147.03;4995168;28;45385;-51
2022/01/17 02:06:57;;;;;;;;;68.25;49.00;;;;;6.54;80.31;103153.16;5073760;28;45378;-51
2022/01/17 02:09:23;;;;;;;;;62.25;45.00;;;;;6.56;80.75;103147.78;5077228;28;46231;-50
2022/01/17 02:11:49;;;;;;;;;52.00;40.00;;;;;6.57;80.01;103141.56;5077234;27;45231;-48
2022/01/17 02:14:15;;;;;;;;;62.75;47.50;;;;;6.58;80.47;103138.88;5076830;28;45325;-50
2022/01/17 02:16:41;;;;;;;;;67.00;48.75;;;;;6.55;80.55;103146.94;5077518;27;45370;-51
2022/01/17 02:19:07;;;;;;;;;58.75;45.75;;;;;6.56;80.91;103143.34;5077142;27;46003;-49
2022/01/17 02:21:48;;;;;;;;;65.25;52.25;;;;;6.56;80.90;103140.72;5077105;27;45329;-49
2022/01/17 02:24:16;;;;;;;;;65.50;50.75;;;;;6.56;81.35;103134.56;5077473;27;45305;-50
2022/01/17 02:26:42;;;;;;;;;62.75;48.25;;;;;6.56;81.04;103129.28;5077393;28;45356;-52
2022/01/17 02:29:08;;;;;;;;;63.50;45.00;;;;;6.61;80.72;103133.44;5076973;28;45436;-53
2022/01/17 02:31:33;;;;;;;;;64.00;48.00;;;;;6.63;80.89;103131.63;5077650;28;45309;-59
2022/01/17 02:34:01;;;;;;;;;64.75;48.75;;;;;6.53;81.32;103111.78;5081024;28;45297;-60
2022/01/17 02:36:27;;;;;;;;;67.75;49.25;;;;;6.62;80.44;103132.56;5080838;28;45358;-60
2022/01/17 02:38:52;;;;;;;;;70.75;49.00;;;;;6.64;80.81;103130.69;5080130;28;45986;-57
2022/01/17 02:41:18;;;;;;;;;57.75;43.50;;;;;6.64;80.93;103121.91;5080647;28;45194;-52
2022/01/17 02:43:48;;;;;;;;;65.00;45.00;;;;;6.68;80.84;103126.13;5080974;27;45331;-51
2022/01/17 02:48:41;;;;;;;;;55.75;44.50;;;;;6.72;80.80;103119.78;5080260;28;46274;-54
2022/01/17 02:51:07;;;;;;;;;68.00;45.00;;;;;6.73;80.70;103119.72;5080463;27;45344;-50
2022/01/17 02:53:34;;;;;;;;;48.25;39.25;;;;;6.78;81.12;103123.97;5080465;28;45246;-55
2022/01/17 02:56:04;;;;;;;;;43.50;35.25;;;;;6.78;79.98;103118.66;5080410;27;45535;-51
2022/01/17 02:58:34;;;;;;;;;48.50;42.25;;;;;6.80;80.45;103116.84;5080415;28;45341;-47
2022/01/17 03:01:07;;;;;;;;;54.50;39.50;;;;;6.82;80.71;103123.78;5079859;27;45388;-52
2022/01/17 03:03:33;;;;;;;;;54.00;39.00;;;;;6.84;80.22;103119.28;5080209;28;45186;-56
2022/01/17 03:06:00;;;;;;;;;47.75;40.00;;;;;6.77;80.11;103106.38;5080678;28;45295;-59
2022/01/17 03:08:29;;;;;;;;;49.25;37.25;;;;;6.88;80.12;103135.91;5080102;28;45952;-59
2022/01/17 03:10:55;;;;;;;;;59.00;38.50;;;;;6.90;80.05;103128.75;5079874;28;45337;-59
2022/01/17 03:13:26;;;;;;;;;53.75;41.50;;;;;6.92;80.07;103135.72;5080211;27;45367;-59
2022/01/17 03:15:55;;;;;;;;;66.75;45.00;;;;;6.93;79.95;103139.22;5080152;27;45337;-58
2022/01/17 03:18:22;;;;;;;;;60.75;45.50;;;;;6.93;79.78;103148.00;5079201;27;45429;-57
2022/01/17 03:20:47;;;;;;;;;47.75;36.75;;;;;6.94;80.51;103149.72;5079901;28;45389;-59
2022/01/17 03:23:13;;;;;;;;;54.75;40.75;;;;;6.96;80.30;103147.03;5079856;28;45378;-59
2022/01/17 03:25:39;;;;;;;;;50.25;36.50;;;;;6.98;80.00;103150.44;5080126;28;45345;-59
2022/01/17 03:28:05;;;;;;;;;51.25;36.00;;;;;7.00;80.01;103149.47;5079690;27;45233;-59
2022/01/17 03:30:33;;;;;;;;;42.75;36.25;;;;;7.01;79.59;103145.03;5079554;27;45203;-59
2022/01/17 03:33:00;;;;;;;;;42.50;36.50;;;;;7.02;79.94;103152.03;5079823;27;45453;-59
2022/01/17 03:35:26;;;;;;;;;37.00;31.75;;;;;7.04;80.36;103151.97;5079742;28;45450;-58
2022/01/17 03:37:51;;;;;;;;;47.25;38.75;;;;;6.73;80.24;103111.78;5079399;28;46509;-53
2022/01/17 03:40:17;;;;;;;;;61.00;39.50;;;;;6.99;80.08;103152.16;5079507;28;45335;-58
2022/01/17 03:42:42;;;;;;;;;47.25;37.00;;;;;7.08;80.33;103166.78;5079643;28;45396;-56
2022/01/17 03:45:08;;;;;;;;;43.50;32.25;;;;;7.08;80.17;103162.41;5079422;28;45433;-55
2022/01/17 03:47:35;;;;;;;;;36.25;26.00;;;;;7.10;80.29;103164.97;5079335;27;45976;-55
2022/01/17 03:50:03;;;;;;;;;49.25;36.50;;;;;7.11;79.97;103166.69;5079493;27;45444;-57
2022/01/17 03:52:28;;;;;;;;;57.50;35.75;;;;;7.09;79.93;103160.59;5079396;28;45388;-59
2022/01/17 03:54:54;;;;;;;;;45.50;33.00;;;;;7.07;79.88;103159.78;5079502;27;45550;-59
2022/01/17 03:57:19;;;;;;;;;37.75;32.25;;;;;7.11;79.59;103178.13;5095018;27;48189;-61
2022/01/17 03:59:44;;;;;;;;;52.00;40.25;;;;;7.13;79.60;103181.59;5079164;27;45402;-59
2022/01/17 04:02:10;;;;;;;;;47.25;36.50;;;;;7.11;80.39;103180.78;5079281;28;45511;-58
2022/01/17 04:04:35;;;;;;;;;43.75;36.50;;;;;7.16;79.70;103186.75;5079493;28;45245;-58
2022/01/17 04:07:00;;;;;;;;;48.50;37.75;;;;;7.17;80.21;103183.16;5079080;27;47142;-56
2022/01/17 04:09:26;;;;;;;;;43.50;31.25;;;;;7.17;79.81;103190.25;5079285;27;45324;-60
2022/01/17 04:11:51;;;;;;;;;47.75;36.00;;;;;7.15;80.06;103181.50;5079141;28;45330;-59
2022/01/17 04:14:17;;;;;;;;;45.00;33.50;;;;;7.15;79.63;103187.66;5079434;28;45504;-58
2022/01/17 04:16:43;;;;;;;;;47.75;39.00;;;;;7.10;79.79;103173.75;5078816;27;46932;-59
2022/01/17 04:19:10;;;;;;;;;57.75;38.50;;;;;7.14;79.73;103193.88;5079118;28;45783;-56
2022/01/17 04:21:36;;;;;;;;;47.50;37.50;;;;;7.12;80.24;103190.44;5079143;27;45299;-60
2022/01/17 04:24:02;;;;;;;;;45.00;36.75;;;;;7.12;79.98;103200.16;5079161;27;45305;-57
2022/01/17 04:26:28;;;;;;;;;45.50;32.00;;;;;7.11;80.00;103199.28;5078909;28;45297;-57
2022/01/17 04:28:53;;;;;;;;;46.00;35.00;;;;;7.10;79.38;103199.38;5077547;28;45594;-59
2022/01/17 04:31:18;;;;;;;;;51.25;40.00;;;;;7.13;79.68;103204.53;5078486;28;45579;-60
2022/01/17 04:33:44;;;;;;;;;60.75;44.75;;;;;7.12;79.90;103189.56;5079238;27;45317;-55
2022/01/17 04:36:09;;;;;;;;;62.75;43.75;;;;;7.16;80.21;103194.69;5078501;28;46436;-55
2022/01/17 04:38:36;;;;;;;;;48.25;38.25;;;;;7.13;80.34;103178.94;5078704;28;45423;-58
2022/01/17 04:41:13;;;;;;;;;56.50;42.25;;;;;7.20;79.66;103198.91;5078722;28;45463;-59
2022/01/17 04:46:05;;;;;;;;;41.50;33.75;;;;;7.24;79.60;103189.91;5078279;28;45900;-57
2022/01/17 04:48:31;;;;;;;;;45.25;36.50;;;;;7.23;80.28;103187.34;5078668;28;45256;-58
2022/01/17 04:50:58;;;;;;;;;44.75;40.25;;;;;7.21;79.73;103190.06;5078441;28;45238;-58
2022/01/17 04:53:25;;;;;;;;;59.25;41.25;;;;;7.23;79.77;103190.84;5078861;28;45444;-56
2022/01/17 04:55:50;;;;;;;;;46.25;38.00;;;;;7.23;80.08;103188.19;5077708;28;46440;-58
2022/01/17 04:58:15;;;;;;;;;49.75;40.00;;;;;7.20;80.08;103198.06;5078462;28;45387;-59
2022/01/17 05:00:48;;;;;;;;;48.00;37.75;;;;;7.22;79.99;103199.72;5078884;28;45867;-55
2022/01/17 05:03:21;;;;;;;;;47.75;42.25;;;;;7.21;79.91;103205.94;5078821;28;45298;-60
2022/01/17 05:05:47;;;;;;;;;48.25;33.00;;;;;7.22;79.84;103202.38;5078745;27;45537;-59
2022/01/17 05:08:15;;;;;;;;;46.50;39.25;;;;;7.21;79.99;103198.00;5078168;28;45319;-59
2022/01/17 05:10:50;;;;;;;;;52.00;40.25;;;;;7.19;79.76;103196.34;5077995;28;45231;-50
2022/01/17 05:13:19;;;;;;;;;43.75;38.50;;;;;7.18;79.56;103194.63;5078348;27;45397;-56
2022/01/17 05:16:05;;;;;;;;;49.00;37.75;;;;;7.13;80.17;103196.59;5077980;27;46103;-56
2022/01/17 05:21:03;;;;;;;;;47.25;39.00;;;;;7.06;79.68;103208.38;5078024;28;45427;-56
2022/01/17 05:23:28;;;;;;;;;54.75;39.50;;;;;7.03;80.48;103219.06;5078139;28;45319;-55
2022/01/17 05:25:54;;;;;;;;;48.00;36.50;;;;;6.98;80.23;103208.66;5077641;28;47631;-57
2022/01/17 05:28:19;;;;;;;;;57.75;37.00;;;;;6.88;80.16;103215.28;5077717;28;45485;-56
2022/01/17 05:30:44;;;;;;;;;53.00;37.50;;;;;6.82;80.61;103223.44;5077981;28;45754;-57
2022/01/17 05:33:10;;;;;;;;;61.00;43.50;;;;;6.71;80.50;103213.31;5077835;27;45323;-58
2022/01/17 05:35:35;;;;;;;;;52.25;41.50;;;;;6.69;80.50;103218.63;5077762;28;45635;-51
2022/01/17 05:38:01;;;;;;;;;51.00;37.25;;;;;6.63;80.57;103220.69;5077417;28;45447;-60
2022/01/17 05:40:26;;;;;;;;;56.00;42.75;;;;;6.59;80.59;103227.00;5077800;28;45349;-57
2022/01/17 05:42:51;;;;;;;;;52.75;41.50;;;;;6.48;80.61;103219.47;5078113;27;45357;-56
2022/01/17 05:45:18;;;;;;;;;59.25;42.25;;;;;6.42;81.30;103223.25;5077515;28;45610;-60
2022/01/17 05:47:45;;;;;;;;;52.75;44.25;;;;;6.38;81.13;103234.84;5077511;28;45480;-52
2022/01/17 05:50:11;;;;;;;;;49.25;41.50;;;;;6.26;81.18;103227.38;5077391;27;45491;-60
2022/01/17 05:52:37;;;;;;;;;52.50;43.50;;;;;6.29;81.69;103237.00;5077657;27;45376;-60
2022/01/17 05:55:05;;;;;;;;;58.75;42.75;;;;;6.21;81.81;103235.50;5077390;28;45982;-56
2022/01/17 05:57:30;;;;;;;;;52.50;41.25;;;;;6.19;81.49;103239.09;5077297;27;45297;-50
2022/01/17 05:59:56;;;;;;;;;58.00;44.50;;;;;6.15;81.73;103243.66;5077405;27;45257;-57
2022/01/17 06:02:21;;;;;;;;;53.00;39.75;;;;;6.10;82.09;103240.28;5077635;28;45202;-51
2022/01/17 06:04:47;;;;;;;;;60.75;44.75;;;;;6.11;82.28;103241.16;5077163;28;47176;-54
2022/01/17 06:07:12;;;;;;;;;61.25;42.75;;;;;6.07;82.58;103243.06;5076296;28;45217;-52
2022/01/17 06:09:37;;;;;;;;;50.50;40.75;;;;;6.07;82.76;103235.16;5077329;28;45198;-58
2022/01/17 06:12:03;;;;;;;;;53.00;43.25;;;;;6.03;82.94;103235.31;5077387;28;45276;-59
2022/01/17 06:14:30;;;;;;;;;52.25;43.75;;;;;5.99;82.86;103238.06;5077128;28;46059;-57
2022/01/17 06:16:55;;;;;;;;;68.25;45.00;;;;;6.02;82.70;103231.78;5076955;28;45342;-53
2022/01/17 06:19:21;;;;;;;;;63.75;44.25;;;;;6.06;83.31;103238.69;5077211;28;45317;-56
2022/01/17 06:21:46;;;;;;;;;59.50;44.00;;;;;5.99;83.26;103242.50;5077305;28;45412;-58
2022/01/17 06:24:12;;;;;;;;;68.75;45.50;;;;;6.09;82.92;103250.94;5076933;28;46256;-54
2022/01/17 06:26:39;;;;;;;;;66.25;47.75;;;;;6.10;82.99;103244.72;5077065;28;45449;-57
2022/01/17 06:29:07;;;;;;;;;60.75;47.75;;;;;6.10;82.72;103244.72;5077330;28;45435;-55
2022/01/17 06:31:33;;;;;;;;;65.25;44.25;;;;;6.09;82.73;103253.59;5077533;28;45270;-58
2022/01/17 06:33:59;;;;;;;;;61.00;43.75;;;;;6.07;82.48;103260.69;5076797;28;46236;-58
2022/01/17 06:36:25;;;;;;;;;66.50;45.50;;;;;5.95;82.47;103252.31;5076944;28;45368;-60
2022/01/17 06:38:50;;;;;;;;;60.00;45.25;;;;;5.98;82.87;103265.41;5076205;28;45341;-58
2022/01/17 06:41:17;;;;;;;;;61.00;44.75;;;;;5.97;82.73;103270.72;5075904;28;45841;-59
2022/01/17 06:43:44;;;;;;;;;65.50;51.50;;;;;5.85;83.06;103272.00;5076899;27;46137;-58
2022/01/17 06:46:09;;;;;;;;;63.00;45.00;;;;;5.96;83.02;103287.50;5076520;27;45217;-57
2022/01/17 06:48:34;;;;;;;;;6.50;0.00;;;;;5.96;83.03;103296.28;5076497;27;45510;-55
2022/01/17 06:51:00;;;;;;;;;58.75;43.75;;;;;5.93;83.38;103306.09;5076912;27;45285;-52
2022/01/17 06:53:27;;;;;;;;;60.75;47.00;;;;;5.97;83.51;103305.94;5076543;27;46377;-58
2022/01/17 06:55:53;;;;;;;;;65.25;49.00;;;;;5.92;83.17;103283.25;5076750;27;45489;-54
2022/01/17 06:58:19;;;;;;;;;52.50;45.00;;;;;6.12;82.54;103279.91;5075429;28;45485;-52
2022/01/17 07:00:45;;;;;;;;;58.25;45.25;;;;;6.15;82.78;103283.31;5076871;27;45287;-56
2022/01/17 07:03:10;;;;;;;;;54.00;43.25;;;;;6.18;82.47;103271.72;5076311;27;46358;-54
2022/01/17 07:05:35;;;;;;;;;64.00;44.25;;;;;6.29;82.60;103287.22;5076672;27;45420;-58
2022/01/17 07:08:01;;;;;;;;;50.25;40.00;;;;;6.32;82.09;103298.53;5076645;27;45335;-51
2022/01/17 07:10:28;;;;;;;;;63.25;42.75;;;;;6.37;82.35;103285.16;5076827;27;45393;-55
2022/01/17 07:12:54;;;;;;;;;54.50;41.25;;;;;6.43;82.02;103301.63;5076441;27;45430;-55
2022/01/17 07:15:20;;;;;;;;;61.50;44.00;;;;;6.48;81.86;103322.63;5076459;27;45848;-57
2022/01/17 07:17:45;;;;;;;;;57.75;42.75;;;;;6.53;82.02;103328.63;5077236;28;45469;-48
2022/01/17 07:20:11;;;;;;;;;67.25;45.75;;;;;6.55;81.42;103336.47;5080297;27;45268;-59
2022/01/17 07:22:36;;;;;;;;;68.25;49.00;;;;;6.60;81.17;103359.19;5079676;27;46142;-51
2022/01/17 07:25:03;;;;;;;;;61.75;43.75;;;;;6.65;80.92;103361.66;5079855;27;45216;-55
2022/01/17 07:27:29;;;;;;;;;53.50;42.25;;;;;6.61;80.92;103352.09;5079984;27;45308;-60
2022/01/17 07:29:55;;;;;;;;;52.25;33.75;;;;;6.69;80.64;103353.53;5079982;27;45302;-53
2022/01/17 07:32:20;;;;;;;;;59.00;42.00;;;;;6.70;80.50;103338.53;5078040;28;46244;-51
2022/01/17 07:34:46;;;;;;;;;53.25;40.25;;;;;6.53;80.52;103298.63;5078317;28;45465;-55
2022/01/17 07:37:11;;;;;;;;;44.25;38.25;;;;;6.66;80.32;103313.16;5079872;28;45417;-51
2022/01/17 07:39:37;;;;;;;;;41.25;37.00;;;;;6.74;80.06;103342.78;5079549;27;45371;-56
2022/01/17 07:42:03;;;;;;;;;42.75;36.00;;;;;6.70;80.40;103336.78;5077803;28;48357;-47
2022/01/17 07:44:30;;;;;;;;;30.25;27.75;;;;;6.66;79.78;103334.31;5079590;27;45367;-47
2022/01/17 07:46:58;;;;;;;;;35.75;31.50;;;;;6.67;79.96;103334.25;5079712;27;45243;-47
2022/01/17 07:49:25;;;;;;;;;39.25;32.00;;;;;6.66;80.01;103329.03;5079220;27;45542;-49
2022/01/17 07:52:08;;;;;;;;;37.75;28.00;;;;;6.64;79.91;103331.69;5079353;27;46219;-59
2022/01/17 07:54:37;;;;;;;;;39.50;31.00;;;;;6.64;80.03;103344.06;5079444;27;45303;-55
2022/01/17 07:57:03;;;;;;;;;40.25;27.25;;;;;6.62;79.70;103351.22;5079292;27;45369;-52
2022/01/17 07:59:29;;;;;;;;;36.50;30.50;;;;;6.62;79.58;103348.56;5078986;27;45304;-47
2022/01/17 08:01:55;;;;;;;;;35.25;28.75;;;;;6.63;79.86;103353.78;5078015;27;45376;-46
2022/01/17 08:04:22;;;;;;;;;38.00;27.50;;;;;6.63;79.49;103356.44;5078029;27;45445;-47
2022/01/17 08:06:49;;;;;;;;;36.00;29.25;;;;;6.66;79.84;103356.31;5078590;27;45265;-47
2022/01/17 08:09:21;;;;;;;;;40.25;31.75;;;;;6.71;79.46;103356.16;5077414;28;45371;-51
2022/01/17 08:11:46;;;;;;;;;42.00;34.50;;;;;6.79;79.27;103355.88;5078259;27;46204;-52
2022/01/17 08:14:12;;;;;;;;;47.75;34.75;;;;;6.82;79.32;103363.66;5078075;27;45392;-50
2022/01/17 08:16:38;;;;;;;;;39.75;31.25;;;;;6.87;78.77;103367.88;5078406;27;45336;-58
2022/01/17 08:19:03;;;;;;;;;44.25;33.75;;;;;6.91;79.18;103361.56;5078092;27;45429;-58
2022/01/17 08:21:29;;;;;;;;;43.75;35.50;;;;;6.93;78.68;103370.28;5078291;27;45986;-58
2022/01/17 08:23:54;;;;;;;;;42.75;32.00;;;;;6.92;78.36;103378.28;5078331;27;45465;-49
2022/01/17 08:26:21;;;;;;;;;38.00;32.50;;;;;6.95;78.46;103378.16;5078254;27;45377;-54
2022/01/17 08:28:48;;;;;;;;;43.75;30.50;;;;;6.92;78.65;103373.84;5077982;27;45326;-51
2022/01/17 08:31:13;;;;;;;;;52.25;36.25;;;;;6.94;78.41;103379.09;5077260;27;46981;-52
2022/01/17 08:33:39;;;;;;;;;39.25;31.75;;;;;6.96;78.49;103369.31;5077718;28;46166;-56
2022/01/17 08:36:07;;;;;;;;;34.25;29.50;;;;;6.97;78.76;103378.97;5078055;27;45354;-54
2022/01/17 08:38:32;;;;;;;;;45.00;34.50;;;;;7.00;77.93;103376.22;5078004;27;45564;-54
2022/01/17 08:40:58;;;;;;;;;34.50;30.50;;;;;7.06;77.83;103383.91;5077474;27;46318;-52
2022/01/17 08:43:24;;;;;;;;;37.00;34.25;;;;;7.08;77.71;103382.06;5077340;27;45463;-52
2022/01/17 08:45:50;;;;;;;;;46.50;35.50;;;;;7.10;77.51;103395.25;5076949;28;45519;-53
2022/01/17 08:48:16;;;;;;;;;45.75;35.00;;;;;7.07;77.84;103379.47;5078208;28;45367;-58
2022/01/17 08:50:43;;;;;;;;;35.00;25.25;;;;;7.11;77.15;103379.28;5077803;27;46404;-56
2022/01/17 08:53:13;;;;;;;;;44.75;35.00;;;;;7.12;77.03;103381.03;5078102;27;45463;-57
2022/01/17 08:55:43;;;;;;;;;54.75;36.00;;;;;7.20;77.04;103394.81;5078075;27;45421;-57
2022/01/17 08:58:10;;;;;;;;;48.00;38.00;;;;;7.23;76.74;103399.13;5077388;27;45419;-50
2022/01/17 09:00:36;;;;;;;;;49.50;36.00;;;;;7.30;76.46;103390.03;5077867;27;45408;-58
2022/01/17 09:03:02;;;;;;;;;43.25;40.00;;;;;7.43;76.48;103385.97;5077934;28;45149;-59
2022/01/17 09:05:32;;;;;;;;;42.75;34.50;;;;;7.47;75.89;103395.53;5078518;28;45480;-50
2022/01/17 09:07:59;;;;;;;;;46.00;37.75;;;;;7.54;76.12;103393.47;5078398;28;45748;-56
2022/01/17 09:10:25;;;;;;;;;39.25;31.75;;;;;7.66;75.69;103397.41;5078625;27;45520;-57
2022/01/17 09:12:52;;;;;;;;;44.50;34.50;;;;;7.93;74.28;103406.03;5078108;27;45397;-45
2022/01/17 09:15:18;;;;;;;;;47.00;35.50;;;;;8.20;74.47;103390.72;5077672;27;45233;-50
2022/01/17 09:17:44;;;;;;;;;41.50;31.25;;;;;8.44;73.61;103404.75;5077233;28;45412;-44
2022/01/17 09:20:10;;;;;;;;;43.00;32.75;;;;;8.62;73.21;103414.53;5076772;28;46041;-55
2022/01/17 09:22:35;;;;;;;;;52.25;38.75;;;;;8.63;71.98;103415.38;5077232;27;45631;-48
2022/01/17 09:25:01;;;;;;;;;42.25;33.75;;;;;8.64;71.95;103409.16;5077280;27;45356;-56
2022/01/17 09:27:26;;;;;;;;;46.75;36.00;;;;;8.75;72.29;103433.41;5077397;27;45362;-55
2022/01/17 09:29:52;;;;;;;;;49.25;38.50;;;;;8.73;71.80;103425.53;5076822;27;45865;-56
2022/01/17 09:32:19;;;;;;;;;36.75;31.50;;;;;8.85;71.74;103447.13;5076433;28;46424;-53
2022/01/17 09:34:46;;;;;;;;;43.25;35.00;;;;;8.86;71.90;103441.75;5076465;28;45779;-53
2022/01/17 09:37:12;;;;;;;;;47.75;36.25;;;;;8.87;70.87;103461.19;5076855;27;45361;-58
2022/01/17 09:39:38;;;;;;;;;51.00;37.50;;;;;8.79;71.26;103444.75;5076357;28;45325;-50
2022/01/17 09:42:06;;;;;;;;;41.25;34.50;;;;;8.87;71.72;103469.16;5075625;28;45439;-52
2022/01/17 09:44:32;;;;;;;;;35.25;32.75;;;;;8.83;71.19;103455.16;5077180;27;45456;-55
2022/01/17 09:46:58;;;;;;;;;51.75;39.00;;;;;8.82;71.53;103441.97;5077032;28;45370;-54
2022/01/17 09:49:33;;;;;;;;;48.25;37.25;;;;;8.82;71.69;103423.41;5074969;28;47130;-60
2022/01/17 09:52:08;;;;;;;;;56.25;37.50;;;;;9.01;70.89;103437.53;5076586;28;45521;-50
2022/01/17 09:54:36;;;;;;;;;39.50;27.25;;;;;9.02;70.34;103433.97;5076320;27;45370;-56
2022/01/17 09:57:08;;;;;;;;;45.50;33.00;;;;;9.06;69.95;103447.94;5076496;28;45575;-56
2022/01/17 09:59:36;;;;;;;;;47.00;33.00;;;;;9.14;70.11;103467.94;5076011;28;47197;-62
2022/01/17 10:02:02;;;;;;;;;46.50;36.50;;;;;9.25;69.56;103467.41;5076129;27;45538;-51
2022/01/17 10:04:28;;;;;;;;;50.00;39.00;;;;;9.36;69.64;103473.09;5076040;27;45450;-54
2022/01/17 10:06:56;;;;;;;;;47.00;37.50;;;;;9.50;69.51;103469.78;5076340;28;45439;-57
2022/01/17 10:09:24;;;;;;;;;41.25;36.00;;;;;9.61;68.49;103483.44;5075631;28;47143;-49
2022/01/17 10:12:03;;;;;;;;;50.75;37.50;;;;;9.70;69.09;103477.66;5076417;27;45417;-58
2022/01/17 10:14:35;;;;;;;;;44.50;33.00;;;;;9.60;68.87;103488.78;5076468;27;45311;-56
2022/01/17 10:17:05;;;;;;;;;38.50;28.50;;;;;9.50;69.51;103483.91;5076363;27;45501;-49
2022/01/17 10:19:30;;;;;;;;;36.75;31.25;;;;;9.42;68.99;103495.84;5073985;28;46260;-54
2022/01/17 10:21:58;;;;;;;;;46.25;34.00;;;;;9.38;69.38;103491.59;5076092;28;45355;-47
2022/01/17 10:24:35;;;;;;;;;47.75;33.25;;;;;9.33;69.38;103481.19;5075978;27;45352;-47
2022/01/17 10:27:22;;;;;;;;;32.25;25.75;;;;;9.28;69.50;103491.19;5076084;27;45693;-45
2022/01/17 10:30:26;;;;;;;;;33.50;27.25;;;;;9.23;69.96;103486.09;5075770;27;46188;-52
2022/01/17 10:35:35;;;;;;;;;40.25;33.50;;;;;9.34;70.34;103479.41;5075683;28;45453;-47
2022/01/17 10:38:10;;;;;;;;;44.00;33.75;;;;;9.28;70.04;103477.03;5076386;28;45318;-44
2022/01/17 10:40:35;;;;;;;;;36.00;31.50;;;;;9.37;69.66;103492.56;5076026;28;46286;-46
2022/01/17 10:43:02;;;;;;;;;46.00;32.00;;;;;9.34;69.75;103501.50;5076093;27;45410;-46
2022/01/17 10:45:33;;;;;;;;;35.75;31.00;;;;;9.35;69.27;103507.69;5076197;27;45402;-45
2022/01/17 10:48:01;;;;;;;;;46.25;31.75;;;;;9.32;69.23;103494.56;5076585;28;45428;-49
2022/01/17 10:50:33;;;;;;;;;41.75;30.75;;;;;9.31;69.29;103487.50;5076148;27;45433;-46
2022/01/17 10:53:01;;;;;;;;;49.00;37.50;;;;;9.26;69.02;103493.03;5076465;27;45453;-54
2022/01/17 10:55:35;;;;;;;;;36.25;29.50;;;;;9.27;69.10;103486.81;5080208;27;45436;-54
2022/01/17 10:58:08;;;;;;;;;46.50;36.50;;;;;9.29;68.98;103474.31;5080111;28;45245;-53
2022/01/17 11:00:38;;;;;;;;;45.75;31.25;;;;;9.33;69.72;103467.91;5079896;27;45951;-52
2022/01/17 11:03:08;;;;;;;;;33.00;28.50;;;;;9.40;68.98;103455.22;5078773;28;45360;-56
2022/01/17 11:05:36;;;;;;;;;36.50;29.25;;;;;9.43;68.80;103431.13;5079326;28;45455;-58
2022/01/17 11:08:02;;;;;;;;;36.75;30.00;;;;;9.68;68.34;103434.31;5078916;28;45461;-56
2022/01/17 11:10:29;;;;;;;;;37.75;29.75;;;;;10.84;66.06;103447.97;5079492;28;45320;-54
2022/01/17 11:12:57;;;;;;;;;34.00;22.50;;;;;12.77;63.75;103442.16;5079511;28;45535;-48
2022/01/17 11:15:24;;;;;;;;;41.00;29.25;;;;;13.39;59.03;103440.03;5079462;28;45662;-53
2022/01/17 11:17:52;;;;;;;;;41.75;33.25;;;;;13.64;58.30;103437.47;5079776;28;45385;-52
2022/01/17 11:20:21;;;;;;;;;38.75;30.25;;;;;13.97;57.35;103433.50;5077578;27;46189;-52
2022/01/17 11:22:51;;;;;;;;;36.00;29.00;;;;;14.30;57.11;103429.50;5078354;27;45456;-55
2022/01/17 11:25:21;;;;;;;;;35.67;30.33;;;;;14.73;55.21;103436.28;5079288;28;45218;-55
2022/01/17 11:27:47;;;;;;;;;29.33;20.33;;;;;15.46;53.45;103431.94;5079528;28;45453;-56
2022/01/17 11:30:13;;;;;;;;;34.33;28.67;;;;;15.30;53.22;103421.50;5079122;28;45419;-55
2022/01/17 11:32:39;;;;;;;;;38.33;35.67;;;;;14.84;54.38;103418.59;5078937;28;45299;-55
2022/01/17 11:35:06;;;;;;;;;50.33;33.00;;;;;14.39;54.45;103420.84;5079059;27;45475;-52
2022/01/17 11:37:40;;;;;;;;;47.67;34.00;;;;;13.92;55.54;103412.41;5079458;28;45419;-55